Time;durP1;ratioP1;P1;durP2;ratioP2;P2;SDS_P1;SDS_P2;PMS_P1;PMS_P2;Temp;Humidity;BMP_temperature;BMP_pressure;BME280_temperature;BME280_humidity;BME280_pressure;Samples;Min_cycle;Max_cycle;Signal;HPM_P1;HPM_P2
2022/08/24 00:00:58;;;;;;;6.95;6.38;;;;;;;18.57;100.00;100252.69;10418601;28;20049;-70
2022/08/24 00:06:01;;;;;;;7.30;6.80;;;;;;;18.44;100.00;100265.03;10416711;28;20045;-70
2022/08/24 00:11:02;;;;;;;6.65;6.05;;;;;;;18.49;100.00;100266.47;10417076;28;20038;-71
2022/08/24 00:16:06;;;;;;;7.28;5.90;;;;;;;18.62;100.00;100267.41;10416516;28;20510;-71
2022/08/24 00:21:08;;;;;;;6.10;5.70;;;;;;;18.54;100.00;100261.69;10400620;28;20396;-71
2022/08/24 00:26:11;;;;;;;6.32;5.82;;;;;;;18.44;100.00;100270.34;10400553;28;20045;-71
2022/08/24 00:31:12;;;;;;;5.40;5.00;;;;;;;18.37;100.00;100267.19;10398234;28;20124;-71
2022/08/24 00:36:14;;;;;;;5.53;5.15;;;;;;;18.40;100.00;100267.00;10398373;28;20049;-71
2022/08/24 00:41:16;;;;;;;5.13;4.72;;;;;;;18.41;100.00;100266.91;10416306;28;20038;-71
2022/08/24 00:46:44;;;;;;;6.50;6.00;;;;;;;18.67;100.00;100267.13;10418404;28;20415;-71
2022/08/24 00:51:54;;;;;;;6.50;6.00;;;;;;;18.57;100.00;100260.66;10397524;28;20039;-71
2022/08/24 00:56:59;;;;;;;5.53;5.18;;;;;;;18.43;100.00;100264.19;10405822;28;20053;-71
2022/08/24 01:02:08;;;;;;;5.67;5.03;;;;;;;18.50;100.00;100260.19;10389789;28;20124;-71
2022/08/24 01:07:16;;;;;;;6.07;5.68;;;;;;;18.54;100.00;100256.38;10408618;28;20072;-71
2022/08/24 01:12:20;;;;;;;5.43;5.03;;;;;;;18.57;100.00;100261.53;10405491;28;20568;-71
2022/08/24 01:22:49;;;;;;;5.20;4.90;;;;;;;18.41;100.00;100274.03;10424005;28;20108;-71
2022/08/24 01:27:53;;;;;;;5.72;5.32;;;;;;;18.40;100.00;100267.88;10391751;28;20143;-71
2022/08/24 01:33:00;;;;;;;5.35;4.95;;;;;;;18.44;100.00;100275.69;10405223;28;20464;-71
2022/08/24 01:38:08;;;;;;;5.57;5.15;;;;;;;18.41;100.00;100269.56;10404680;28;20053;-71
2022/08/24 01:43:10;;;;;;;6.07;5.53;;;;;;;18.38;100.00;100267.13;10422493;28;20125;-70
2022/08/24 01:48:14;;;;;;;6.20;5.80;;;;;;;18.41;100.00;100263.41;10405814;28;20426;-71
2022/08/24 01:53:25;;;;;;;5.78;5.38;;;;;;;18.43;100.00;100256.19;10406148;28;20605;-71
2022/08/24 01:58:26;;;;;;;7.43;6.72;;;;;;;18.42;100.00;100259.81;10404719;28;20050;-71
2022/08/24 02:03:28;;;;;;;6.32;5.82;;;;;;;18.26;100.00;100253.69;10404934;28;20100;-72
2022/08/24 02:08:34;;;;;;;7.95;6.15;;;;;;;18.39;100.00;100252.00;10404681;28;20403;-71
2022/08/24 02:13:39;;;;;;;7.07;6.40;;;;;;;18.14;100.00;100253.47;10405216;28;20042;-71
2022/08/24 02:18:41;;;;;;;7.20;6.60;;;;;;;18.04;100.00;100251.47;10403700;28;20050;-72
2022/08/24 02:23:43;;;;;;;7.22;6.57;;;;;;;17.85;100.00;100257.00;10403352;28;20054;-71
2022/08/24 02:28:45;;;;;;;8.00;7.20;;;;;;;17.75;100.00;100250.50;10402739;28;20042;-71
2022/08/24 02:33:46;;;;;;;7.60;7.00;;;;;;;17.76;100.00;100246.91;10405626;28;20037;-71
2022/08/24 02:38:48;;;;;;;7.30;6.82;;;;;;;17.62;100.00;100253.84;10403562;28;20128;-71
2022/08/24 02:43:54;;;;;;;7.43;6.82;;;;;;;17.57;100.00;100255.88;10387779;28;20045;-71
2022/08/24 02:49:00;;;;;;;7.00;6.57;;;;;;;17.52;100.00;100257.94;10386898;28;20053;-71
2022/08/24 02:54:16;;;;;;;7.28;6.78;;;;;;;17.43;100.00;100255.81;10403126;28;20048;-71
2022/08/24 02:59:21;;;;;;;11.98;7.30;;;;;;;17.54;100.00;100269.38;10402130;28;20049;-70
2022/08/24 03:04:24;;;;;;;8.32;7.72;;;;;;;17.70;100.00;100271.13;10401516;28;20503;-70
2022/08/24 03:09:26;;;;;;;8.52;7.45;;;;;;;17.50;100.00;100273.16;10419833;28;20041;-71
2022/08/24 03:14:31;;;;;;;8.52;8.00;;;;;;;17.28;100.00;100275.28;10401358;28;20041;-71
2022/08/24 03:19:33;;;;;;;7.75;7.03;;;;;;;17.21;100.00;100273.91;10402737;28;20140;-71
2022/08/24 03:24:35;;;;;;;8.55;7.95;;;;;;;17.13;100.00;100280.53;10401192;28;20414;-71
2022/08/24 03:29:36;;;;;;;7.70;7.20;;;;;;;17.21;100.00;100285.38;10402235;28;20099;-71
2022/08/24 03:34:40;;;;;;;8.00;7.35;;;;;;;17.23;100.00;100287.97;10419370;28;20036;-71
2022/08/24 03:39:42;;;;;;;8.75;7.95;;;;;;;17.30;100.00;100294.66;10401918;28;20424;-71
2022/08/24 03:44:43;;;;;;;8.63;7.95;;;;;;;17.55;100.00;100295.00;10401028;28;20045;-71
2022/08/24 03:49:46;;;;;;;9.70;8.70;;;;;;;17.58;100.00;100291.31;10400109;28;20115;-71
2022/08/24 03:54:48;;;;;;;8.20;7.60;;;;;;;17.38;100.00;100301.25;10400780;28;20042;-72
2022/08/24 03:59:50;;;;;;;9.73;9.02;;;;;;;17.12;100.00;100301.84;10385022;28;20080;-71
2022/08/24 04:04:52;;;;;;;9.23;8.30;;;;;;;17.06;100.00;100318.13;10418174;28;20047;-71
2022/08/24 04:09:54;;;;;;;8.52;7.88;;;;;;;17.07;100.00;100323.31;10399364;28;20422;-71
2022/08/24 04:14:58;;;;;;;9.27;8.77;;;;;;;17.23;100.00;100314.53;10384367;28;20076;-72
2022/08/24 04:20:02;;;;;;;8.82;8.30;;;;;;;17.29;100.00;100320.38;10401001;28;20053;-73
2022/08/24 04:25:09;;;;;;;8.32;7.63;;;;;;;17.33;100.00;100310.44;10401680;28;20113;-71
2022/08/24 04:30:13;;;;;;;9.55;8.65;;;;;;;17.49;100.00;100313.09;10399322;28;20107;-71
2022/08/24 04:35:44;;;;;;;8.77;7.97;;;;;;;17.45;100.00;100308.91;10422365;28;20069;-72
2022/08/24 04:40:48;;;;;;;8.65;7.97;;;;;;;17.43;100.00;100311.63;10424567;28;20042;-71
2022/08/24 04:45:51;;;;;;;8.52;7.70;;;;;;;17.49;100.00;100315.75;10402246;28;20052;-72
2022/08/24 04:50:53;;;;;;;8.07;7.47;;;;;;;17.56;100.00;100319.78;10398848;28;20071;-71
2022/08/24 04:55:56;;;;;;;7.30;6.90;;;;;;;17.65;100.00;100320.09;10417604;28;20410;-71
2022/08/24 05:00:59;;;;;;;9.02;8.43;;;;;;;17.75;100.00;100330.25;10398736;28;20064;-71
2022/08/24 05:06:01;;;;;;;10.07;9.32;;;;;;;17.76;100.00;100335.50;10399787;28;20046;-72
2022/08/24 05:11:07;;;;;;;9.90;9.20;;;;;;;17.88;100.00;100336.59;10398972;28;20148;-72
2022/08/24 05:16:12;;;;;;;9.45;8.85;;;;;;;18.00;100.00;100343.00;10399306;28;20045;-71
2022/08/24 05:21:18;;;;;;;10.48;9.38;;;;;;;18.12;100.00;100343.16;10398833;28;20041;-72
2022/08/24 05:26:25;;;;;;;8.77;8.27;;;;;;;18.31;100.00;100347.41;10398892;28;20107;-71
2022/08/24 05:31:31;;;;;;;10.38;9.43;;;;;;;18.43;100.00;100338.72;10402015;28;20041;-71
2022/08/24 05:36:39;;;;;;;8.10;7.50;;;;;;;18.73;100.00;100335.19;10401187;28;20510;-71
2022/08/24 05:41:46;;;;;;;8.73;8.02;;;;;;;18.99;100.00;100341.56;10389129;28;20045;-72
2022/08/24 05:46:58;;;;;;;8.68;7.95;;;;;;;19.19;98.44;100345.66;10407006;28;20056;-72
2022/08/24 05:52:01;;;;;;;8.63;7.95;;;;;;;19.39;96.62;100355.94;10429389;22;20045;-71
2022/08/24 05:57:05;;;;;;;10.07;9.25;;;;;;;19.22;97.46;100354.34;10444439;28;20041;-71
2022/08/24 06:02:13;;;;;;;9.90;9.02;;;;;;;19.15;98.24;100361.84;10444353;28;20037;-71
2022/08/24 06:07:15;;;;;;;9.07;8.38;;;;;;;19.02;98.66;100363.53;10443904;28;20048;-71
2022/08/24 06:12:23;;;;;;;8.57;8.00;;;;;;;19.19;97.16;100361.66;10429327;28;20104;-71
2022/08/24 06:17:25;;;;;;;10.55;9.75;;;;;;;19.25;95.68;100362.13;10444034;28;20095;-71
2022/08/24 06:22:27;;;;;;;10.38;9.48;;;;;;;19.31;94.37;100366.22;10444705;28;20406;-70
2022/08/24 06:27:29;;;;;;;9.80;9.02;;;;;;;19.44;94.69;100364.50;10461772;28;20422;-70
2022/08/24 06:32:31;;;;;;;8.73;8.02;;;;;;;19.53;95.14;100371.91;10443791;28;20413;-70
2022/08/24 06:37:34;;;;;;;9.80;8.90;;;;;;;19.79;93.34;100364.06;10427318;28;20053;-71
2022/08/24 06:42:36;;;;;;;10.45;9.55;;;;;;;19.96;92.30;100369.16;10460808;28;20533;-71
2022/08/24 06:47:49;;;;;;;9.55;8.65;;;;;;;20.17;90.07;100377.56;10441491;28;20136;-71
2022/08/24 06:52:52;;;;;;;9.80;9.02;;;;;;;20.12;91.10;100380.53;10442273;28;20449;-71
2022/08/24 06:57:54;;;;;;;10.13;9.20;;;;;;;20.39;90.12;100382.34;10442460;28;20132;-71
2022/08/24 07:02:56;;;;;;;9.43;8.65;;;;;;;20.97;84.57;100383.72;10442801;28;20045;-71
2022/08/24 07:07:58;;;;;;;8.55;7.90;;;;;;;21.03;85.50;100382.44;10442464;28;20053;-71
2022/08/24 07:13:00;;;;;;;7.95;7.30;;;;;;;20.99;86.08;100394.34;10425647;28;20518;-72
2022/08/24 07:18:02;;;;;;;8.40;7.75;;;;;;;21.26;84.49;100395.06;10441930;28;20076;-71
2022/08/24 07:23:06;;;;;;;8.45;7.63;;;;;;;21.25;84.19;100392.50;10441449;28;20069;-71
2022/08/24 07:28:08;;;;;;;9.38;8.48;;;;;;;21.21;84.09;100402.56;10440915;28;20052;-71
2022/08/24 07:33:13;;;;;;;9.15;8.27;;;;;;;21.07;86.24;100394.63;10440953;28;20056;-71
2022/08/24 07:38:15;;;;;;;9.02;8.00;;;;;;;21.21;85.46;100407.91;10441379;28;20501;-71
2022/08/24 07:43:19;;;;;;;11.23;10.23;;;;;;;21.27;84.99;100404.78;10441561;28;20505;-70
2022/08/24 07:48:22;;;;;;;10.45;8.75;;;;;;;21.24;85.79;100404.16;10442402;28;20051;-70
2022/08/24 07:53:25;;;;;;;9.48;8.68;;;;;;;21.61;83.66;100402.44;10457035;28;20099;-71
2022/08/24 07:58:38;;;;;;;10.25;9.35;;;;;;;21.92;82.98;100411.78;10443510;28;20069;-71
2022/08/24 08:03:40;;;;;;;9.55;8.82;;;;;;;22.00;81.63;100406.72;10439790;28;20041;-72
2022/08/24 08:08:42;;;;;;;8.05;7.25;;;;;;;22.30;80.15;100405.44;10439662;28;20049;-71
2022/08/24 08:13:44;;;;;;;10.13;7.10;;;;;;;22.40;78.81;100414.47;10439635;28;20071;-71
2022/08/24 08:18:46;;;;;;;10.43;9.52;;;;;;;23.13;74.52;100411.56;10458901;28;20052;-71
2022/08/24 08:24:19;;;;;;;11.90;10.60;;;;;;;22.74;78.25;100412.78;10440235;28;20045;-71
2022/08/24 08:29:27;;;;;;;10.75;9.70;;;;;;;22.83;77.66;100417.44;10439472;28;20107;-71
2022/08/24 08:34:30;;;;;;;9.90;8.95;;;;;;;23.03;75.59;100415.09;10441557;28;20071;-71
2022/08/24 08:39:32;;;;;;;9.57;8.77;;;;;;;23.16;75.72;100421.22;10439419;28;20120;-71
2022/08/24 08:44:44;;;;;;;8.38;7.57;;;;;;;23.27;74.32;100423.88;10439509;28;20041;-71
2022/08/24 08:49:49;;;;;;;6.50;5.70;;;;;;;23.20;73.52;100427.16;10438994;28;20049;-71
2022/08/24 08:54:51;;;;;;;7.13;4.57;;;;;;;23.38;73.35;100423.91;10438370;28;20049;-71
2022/08/24 09:00:08;;;;;;;9.18;5.80;;;;;;;23.76;73.63;100416.47;10440469;28;20386;-71
2022/08/24 09:05:36;;;;;;;7.53;5.32;;;;;;;23.98;70.76;100419.13;10424583;28;20525;-70
2022/08/24 09:11:23;;;;;;;5.78;5.28;;;;;;;24.14;69.35;100414.19;10425243;28;20048;-70
2022/08/24 09:16:48;;;;;;;5.63;4.43;;;;;;;24.94;64.89;100410.22;10368551;28;20108;-70
2022/08/24 09:22:12;;;;;;;7.53;4.22;;;;;;;24.74;65.46;100406.53;10446847;28;20136;-70
2022/08/24 09:27:33;;;;;;;8.63;4.15;;;;;;;24.98;66.20;100417.03;10447429;28;20045;-70
2022/08/24 09:32:46;;;;;;;5.32;4.05;;;;;;;25.04;64.79;100411.13;10446432;28;20419;-70
2022/08/24 09:38:04;;;;;;;5.68;5.18;;;;;;;24.41;65.58;100412.94;10464631;28;20091;-70
2022/08/24 09:43:39;;;;;;;5.50;4.97;;;;;;;24.99;63.80;100410.66;10463249;28;20055;-70
2022/08/24 09:48:53;;;;;;;;;;;;;;;25.25;61.80;100404.91;10465542;28;20489;-70
2022/08/24 09:54:03;;;;;;;6.72;4.22;;;;;;;25.08;62.21;100401.81;10445070;28;19920;-71
2022/08/24 09:59:18;;;;;;;8.80;4.75;;;;;;;24.85;62.15;100400.25;10462089;28;20044;-70
2022/08/24 10:04:50;;;;;;;4.82;4.38;;;;;;;24.91;63.29;100392.50;10462495;28;20037;-70
2022/08/24 10:10:16;;;;;;;4.85;4.45;;;;;;;24.99;65.09;100386.47;10412157;28;20053;-70
2022/08/24 10:15:26;;;;;;;5.13;4.05;;;;;;;25.44;60.63;100390.66;10444576;28;20072;-70
2022/08/24 10:20:48;;;;;;;5.82;4.57;;;;;;;25.21;61.66;100390.00;10461855;28;20521;-70
2022/08/24 10:26:16;;;;;;;5.80;3.67;;;;;;;26.08;60.60;100375.00;10443707;28;20047;-70
2022/08/24 10:31:30;;;;;;;6.25;4.07;;;;;;;26.96;56.75;100378.53;10463689;28;20069;-70
2022/08/24 10:36:43;;;;;;;6.40;4.43;;;;;;;27.18;55.67;100374.63;10462424;28;20064;-70
2022/08/24 10:41:57;;;;;;;5.18;4.07;;;;;;;27.25;54.82;100374.91;10464313;28;20052;-70
2022/08/24 10:47:19;;;;;;;5.45;3.70;;;;;;;27.08;54.89;100363.84;10461200;28;20558;-72
2022/08/24 10:52:46;;;;;;;5.15;4.00;;;;;;;26.29;57.78;100371.31;10442311;28;20503;-71
2022/08/24 10:58:23;;;;;;;6.43;5.40;;;;;;;25.92;58.38;100367.47;10460302;28;20091;-71
2022/08/24 11:03:26;;;;;;;5.97;4.70;;;;;;;25.59;59.82;100379.41;10438587;28;20057;-71
2022/08/24 11:08:32;;;;;;;5.85;5.35;;;;;;;25.47;59.48;100375.09;10460211;28;20076;-71
2022/08/24 11:13:36;;;;;;;6.43;5.83;;;;;;;25.72;59.36;100371.09;10459672;28;20077;-71
2022/08/24 11:19:08;;;;;;;6.53;5.93;;;;;;;25.23;60.65;100382.63;10460259;28;20483;-71
2022/08/24 11:24:53;;;;;;;7.45;5.95;;;;;;;25.05;61.07;100377.00;10440274;28;20080;-71
2022/08/24 11:29:57;;;;;;;;;;;;;;;25.21;59.92;100381.94;10438475;28;20052;-71
2022/08/24 11:35:15;;;;;;;6.63;6.03;;;;;;;24.81;62.77;100374.59;10458980;28;19921;-71
2022/08/24 11:40:21;;;;;;;5.88;5.30;;;;;;;24.86;62.41;100375.91;10459240;28;20037;-71
2022/08/24 11:45:28;;;;;;;5.93;5.35;;;;;;;24.97;62.12;100374.13;10460864;28;20040;-72
2022/08/24 11:50:51;;;;;;;5.65;4.97;;;;;;;24.99;63.22;100378.38;10459803;28;20045;-72
2022/08/24 11:56:05;;;;;;;7.90;5.30;;;;;;;24.84;63.29;100387.78;10474205;22;20055;-71
2022/08/24 12:01:21;;;;;;;7.05;5.57;;;;;;;25.07;62.38;100383.97;10440524;28;20045;-71
2022/08/24 12:06:29;;;;;;;6.07;5.27;;;;;;;25.26;61.68;100385.06;10457691;28;20095;-71
2022/08/24 12:11:59;;;;;;;6.82;5.80;;;;;;;25.37;63.35;100385.84;10458445;28;20041;-71
2022/08/24 12:17:21;;;;;;;6.50;5.80;;;;;;;25.53;59.94;100379.09;10441272;28;20049;-71
2022/08/24 12:22:24;;;;;;;7.60;5.18;;;;;;;25.72;59.79;100365.72;10457893;28;20484;-71
2022/08/24 12:27:32;;;;;;;7.25;5.32;;;;;;;26.18;57.84;100358.84;10457336;28;20063;-71
2022/08/24 12:32:45;;;;;;;8.02;6.03;;;;;;;26.22;57.01;100357.56;10457900;28;20123;-71
2022/08/24 12:38:16;;;;;;;7.50;5.43;;;;;;;26.74;57.35;100370.75;10460336;28;20128;-71
2022/08/24 12:43:30;;;;;;;5.10;4.65;;;;;;;27.00;54.83;100362.88;10457059;28;20490;-71
2022/08/24 12:48:45;;;;;;;5.17;4.70;;;;;;;27.01;53.83;100359.22;10429388;28;20041;-71
2022/08/24 12:54:10;;;;;;;6.32;5.72;;;;;;;26.90;56.03;100355.66;10447434;28;20045;-72
2022/08/24 12:59:19;;;;;;;5.63;5.05;;;;;;;27.02;55.33;100352.81;10448510;28;20108;-72
2022/08/24 13:04:35;;;;;;;4.90;4.43;;;;;;;27.17;55.05;100352.19;10465448;28;20037;-70
2022/08/24 13:09:57;;;;;;;7.10;4.75;;;;;;;27.12;53.38;100346.41;10446773;28;20048;-70
2022/08/24 13:15:19;;;;;;;5.72;5.22;;;;;;;27.15;54.72;100351.50;10416700;28;20041;-70
2022/08/24 13:20:22;;;;;;;6.22;4.78;;;;;;;27.18;53.57;100353.03;10448612;28;20463;-67
2022/08/24 13:25:41;;;;;;;5.80;4.68;;;;;;;26.74;55.53;100350.03;10464359;28;20048;-71
2022/08/24 13:30:52;;;;;;;7.97;5.80;;;;;;;26.33;56.16;100356.56;10465396;28;20380;-72
2022/08/24 13:36:13;;;;;;;5.28;4.78;;;;;;;26.62;56.78;100357.44;10446074;28;20116;-71
2022/08/24 13:41:34;;;;;;;6.05;4.82;;;;;;;26.95;54.81;100357.06;10466486;28;20044;-71
2022/08/24 13:46:53;;;;;;;6.00;5.50;;;;;;;26.80;56.80;100345.91;10445630;28;20052;-71
2022/08/24 13:52:24;;;;;;;8.30;5.40;;;;;;;26.41;55.59;100340.53;10445310;28;20041;-71
2022/08/24 13:57:31;;;;;;;7.05;6.35;;;;;;;26.42;55.97;100342.22;10444217;28;20076;-71
2022/08/24 14:02:41;;;;;;;5.18;4.85;;;;;;;26.70;56.65;100342.38;10446869;28;20037;-71
2022/08/24 14:08:25;;;;;;;8.55;6.03;;;;;;;26.66;54.61;100336.44;10445677;28;20045;-71
2022/08/24 14:14:11;;;;;;;6.63;5.82;;;;;;;26.66;54.01;100344.53;10444083;28;20045;-71
2022/08/24 14:19:29;;;;;;;5.57;5.03;;;;;;;26.62;54.14;100335.88;10364266;28;20139;-70
2022/08/24 14:24:39;;;;;;;6.95;5.55;;;;;;;26.73;53.69;100334.84;10462211;28;20033;-70
2022/08/24 14:29:46;;;;;;;6.85;6.13;;;;;;;26.69;53.49;100335.28;10462322;28;20045;-71
2022/08/24 14:35:04;;;;;;;5.82;5.32;;;;;;;26.70;53.85;100337.00;10461013;28;20094;-71
2022/08/24 14:40:19;;;;;;;5.97;5.57;;;;;;;26.56;54.19;100328.38;10462647;28;20364;-70
2022/08/24 14:45:34;;;;;;;5.95;5.45;;;;;;;26.58;55.36;100329.06;10461027;28;20037;-71
2022/08/24 14:50:41;;;;;;;8.48;5.95;;;;;;;26.42;56.21;100324.22;10464055;28;20045;-71
2022/08/24 14:56:17;;;;;;;7.40;5.88;;;;;;;26.62;55.99;100314.28;10464501;28;20041;-71
2022/08/24 15:01:44;;;;;;;6.35;5.82;;;;;;;26.73;56.91;100313.25;10431557;28;20056;-70
2022/08/24 15:06:52;;;;;;;6.65;6.05;;;;;;;26.52;56.79;100313.47;10467539;28;20406;-70
2022/08/24 15:12:37;;;;;;;7.90;7.30;;;;;;;26.54;56.54;100307.94;10467102;28;20052;-71
2022/08/24 15:17:45;;;;;;;;;;;;;;;26.40;57.70;100301.09;10427777;28;20113;-72
2022/08/24 15:23:02;;;;;;;9.02;8.23;;;;;;;26.07;58.64;100302.41;10444580;28;20011;-71
2022/08/24 15:28:12;;;;;;;12.10;11.15;;;;;;;26.00;57.23;100301.28;10465508;28;20103;-71
2022/08/24 15:33:18;;;;;;;11.35;10.48;;;;;;;25.77;57.74;100306.94;10448881;28;20096;-71
2022/08/24 15:38:35;;;;;;;12.48;11.30;;;;;;;25.73;58.55;100294.72;10466148;28;20045;-72
2022/08/24 15:43:50;;;;;;;12.00;10.57;;;;;;;25.62;59.39;100302.88;10464208;28;20037;-71
2022/08/24 15:49:02;;;;;;;12.60;10.50;;;;;;;25.56;59.00;100296.22;10447091;28;20048;-71
2022/08/24 15:54:22;;;;;;;12.10;11.18;;;;;;;25.46;59.00;100289.97;10464672;28;20456;-71
2022/08/24 15:59:43;;;;;;;11.20;10.40;;;;;;;25.26;59.57;100290.91;10462817;28;20053;-71
2022/08/24 16:04:47;;;;;;;12.45;11.55;;;;;;;25.20;60.54;100286.09;10464250;28;20041;-71
2022/08/24 16:10:02;;;;;;;11.35;10.48;;;;;;;25.42;58.99;100280.47;10461657;28;20041;-71
2022/08/24 16:15:18;;;;;;;12.87;11.87;;;;;;;25.21;60.64;100285.94;10462702;28;20041;-71
2022/08/24 16:20:31;;;;;;;11.90;11.13;;;;;;;25.38;59.03;100282.59;10460121;28;20043;-71
2022/08/24 16:25:40;;;;;;;12.13;11.07;;;;;;;25.15;60.09;100284.66;10461566;28;20051;-71
2022/08/24 16:30:53;;;;;;;12.63;11.75;;;;;;;25.37;59.51;100288.13;10446537;28;20049;-71
2022/08/24 16:35:57;;;;;;;12.88;11.63;;;;;;;25.10;60.91;100281.53;10442498;28;20044;-71
2022/08/24 16:41:02;;;;;;;12.23;11.32;;;;;;;25.24;60.99;100292.91;10460183;28;20100;-70
2022/08/24 16:46:05;;;;;;;9.93;9.13;;;;;;;25.16;61.37;100283.66;10458205;28;20048;-71
2022/08/24 16:51:07;;;;;;;9.82;9.07;;;;;;;25.02;61.68;100278.63;10459503;28;20045;-71
2022/08/24 16:56:09;;;;;;;10.90;9.20;;;;;;;25.09;61.89;100281.63;10460488;28;20517;-70
2022/08/24 17:01:17;;;;;;;10.60;9.63;;;;;;;24.83;63.09;100275.81;10461633;28;20052;-71
2022/08/24 17:06:20;;;;;;;9.27;8.57;;;;;;;24.79;63.37;100286.03;10462895;28;20130;-70
2022/08/24 17:11:22;;;;;;;10.57;9.73;;;;;;;24.86;63.34;100279.09;10444628;28;20091;-71
2022/08/24 17:16:24;;;;;;;10.80;10.02;;;;;;;24.79;63.57;100285.16;10444135;28;20390;-71
2022/08/24 17:21:26;;;;;;;11.70;10.43;;;;;;;24.76;63.66;100282.75;10460998;28;20051;-70
2022/08/24 17:26:30;;;;;;;9.57;8.80;;;;;;;24.59;64.34;100297.66;10456270;28;20401;-71
2022/08/24 17:31:32;;;;;;;10.57;9.75;;;;;;;24.42;65.18;100299.09;10457488;28;20045;-70
2022/08/24 17:36:35;;;;;;;10.05;9.30;;;;;;;24.41;65.06;100302.75;10446043;28;20037;-71
2022/08/24 17:41:37;;;;;;;11.95;11.05;;;;;;;24.23;66.95;100315.88;10449688;28;20056;-71
2022/08/24 17:46:40;;;;;;;10.95;9.90;;;;;;;24.25;66.85;100316.59;10466672;28;20457;-71
2022/08/24 17:52:07;;;;;;;9.93;9.13;;;;;;;24.24;66.79;100316.75;10441099;22;20503;31
2022/08/24 17:57:12;;;;;;;10.52;9.45;;;;;;;24.22;67.27;100329.47;10379456;28;20083;-71
2022/08/24 18:02:13;;;;;;;9.50;8.55;;;;;;;24.07;67.56;100326.19;10381092;28;20057;-72
2022/08/24 18:07:20;;;;;;;9.55;8.68;;;;;;;23.90;68.39;100333.81;10381072;28;20473;-73
2022/08/24 18:12:42;;;;;;;9.18;8.38;;;;;;;23.70;69.19;100337.31;10381112;28;20119;-72
2022/08/24 18:17:49;;;;;;;10.38;9.57;;;;;;;23.63;69.58;100330.69;10380156;28;20046;-72
2022/08/24 18:22:50;;;;;;;10.15;9.13;;;;;;;23.35;71.26;100337.44;10380485;28;20048;-73
2022/08/24 18:27:56;;;;;;;9.45;8.85;;;;;;;23.11;72.87;100337.59;10380088;28;20042;-73
2022/08/24 18:33:00;;;;;;;10.35;9.43;;;;;;;22.92;76.41;100346.22;10381177;28;20050;-72
2022/08/24 18:38:03;;;;;;;10.95;10.15;;;;;;;22.74;77.92;100355.66;10379520;28;20096;-72
2022/08/24 18:43:05;;;;;;;11.55;10.68;;;;;;;22.71;80.51;100350.53;10380892;28;20406;-71
2022/08/24 18:48:07;;;;;;;11.10;10.40;;;;;;;22.46;81.86;100357.78;10381274;28;20049;-72
2022/08/24 18:53:12;;;;;;;12.00;11.18;;;;;;;22.43;82.92;100371.41;10364329;28;20077;-72
2022/08/24 18:58:13;;;;;;;11.57;10.63;;;;;;;22.36;83.80;100370.16;10381594;28;20045;-72
2022/08/24 19:03:18;;;;;;;11.65;10.85;;;;;;;22.06;84.22;100373.28;10381327;28;20042;-72
2022/08/24 19:08:19;;;;;;;12.07;10.98;;;;;;;21.89;85.21;100372.69;10378689;28;20153;-72
2022/08/24 19:13:21;;;;;;;10.77;10.07;;;;;;;21.80;86.34;100368.03;10381004;28;20042;-72
2022/08/24 19:18:23;;;;;;;12.95;11.85;;;;;;;21.85;86.94;100376.56;10362331;28;20045;-72
2022/08/24 19:23:29;;;;;;;13.18;12.15;;;;;;;21.72;87.87;100374.91;10362200;28;20525;-72
2022/08/24 19:28:31;;;;;;;17.97;13.30;;;;;;;21.57;88.69;100372.38;10379289;28;20042;-73
2022/08/24 19:33:38;;;;;;;13.25;12.25;;;;;;;21.42;90.02;100374.31;10379160;28;20076;-73
2022/08/24 19:38:41;;;;;;;13.70;12.65;;;;;;;21.41;90.49;100372.59;10378893;28;20049;-72
2022/08/24 19:49:24;;;;;;;13.75;12.65;;;;;;;21.30;91.15;100374.31;10378821;28;20077;-73
2022/08/24 19:54:37;;;;;;;15.43;14.30;;;;;;;21.17;92.36;100371.66;10361140;28;20113;-73
2022/08/24 19:59:39;;;;;;;14.48;13.48;;;;;;;21.07;93.18;100371.47;10378625;28;20045;-73
2022/08/24 20:04:41;;;;;;;15.30;14.27;;;;;;;21.14;93.35;100375.41;10377317;28;20050;-73
2022/08/24 20:09:43;;;;;;;15.73;14.27;;;;;;;21.07;93.71;100379.47;10361629;28;20120;-73
2022/08/24 20:14:45;;;;;;;15.32;13.75;;;;;;;20.96;94.11;100384.69;10378152;28;20410;-73
2022/08/24 20:19:46;;;;;;;16.48;15.13;;;;;;;20.76;96.05;100380.75;10378510;28;20054;-72
2022/08/24 20:24:51;;;;;;;15.23;13.93;;;;;;;20.55;96.79;100385.72;10360953;28;20049;-72
2022/08/24 20:29:54;;;;;;;16.42;14.93;;;;;;;20.59;96.83;100381.88;10360893;28;20085;-73
2022/08/24 20:34:55;;;;;;;15.25;14.15;;;;;;;20.60;97.59;100386.28;10377874;28;20045;-73
2022/08/24 20:39:57;;;;;;;15.95;14.32;;;;;;;20.39;96.79;100379.66;10375963;28;20084;-73
2022/08/24 20:44:59;;;;;;;16.48;15.18;;;;;;;20.46;98.20;100380.13;10375509;28;20042;-72
2022/08/24 20:50:01;;;;;;;15.27;14.20;;;;;;;20.55;97.95;100379.53;10358405;28;20466;-73
2022/08/24 20:55:03;;;;;;;15.73;14.45;;;;;;;20.35;99.45;100375.50;10359948;28;20426;-73
2022/08/24 21:00:09;;;;;;;16.48;14.68;;;;;;;20.21;100.00;100373.75;10377792;28;20100;-72
2022/08/24 21:05:10;;;;;;;15.15;14.02;;;;;;;20.10;98.99;100369.13;10361281;28;20061;-72
2022/08/24 21:10:12;;;;;;;14.02;13.10;;;;;;;20.10;98.91;100376.28;10383279;28;20041;-72
2022/08/24 21:15:15;;;;;;;14.85;13.75;;;;;;;20.11;98.72;100367.31;10384961;28;20042;-72
2022/08/24 21:20:18;;;;;;;14.60;13.60;;;;;;;20.22;100.00;100385.28;10383302;28;20112;-72
2022/08/24 21:25:20;;;;;;;15.25;13.98;;;;;;;20.12;100.00;100380.53;10385289;28;20038;-72
2022/08/24 21:30:22;;;;;;;16.98;15.60;;;;;;;20.07;100.00;100381.81;10383523;28;20084;-73
2022/08/24 21:35:24;;;;;;;16.23;15.02;;;;;;;19.87;100.00;100385.75;10382975;28;20052;-73
2022/08/24 21:40:27;;;;;;;15.48;14.23;;;;;;;19.83;100.00;100384.25;10382832;28;20117;-73
2022/08/24 21:45:31;;;;;;;16.75;15.23;;;;;;;19.89;100.00;100389.19;10364377;28;20057;-72
2022/08/24 21:50:33;;;;;;;16.35;15.15;;;;;;;19.73;100.00;100389.31;10383238;28;20042;-72
2022/08/24 21:55:34;;;;;;;16.00;14.90;;;;;;;19.77;100.00;100398.00;10364619;28;20041;-73
2022/08/24 22:00:37;;;;;;;16.73;15.52;;;;;;;19.63;100.00;100391.72;10381848;28;20050;-72
2022/08/24 22:05:39;;;;;;;16.75;15.35;;;;;;;19.63;100.00;100393.53;10381472;28;20479;-72
2022/08/24 22:10:41;;;;;;;16.58;15.38;;;;;;;19.55;100.00;100385.13;10380820;28;20095;-72
2022/08/24 22:15:44;;;;;;;17.05;15.55;;;;;;;19.67;100.00;100389.72;10381045;28;20042;-73
2022/08/24 22:20:46;;;;;;;16.27;14.82;;;;;;;19.57;100.00;100375.25;10380377;28;20056;-73
2022/08/24 22:25:52;;;;;;;16.50;15.20;;;;;;;19.50;100.00;100377.44;10379973;28;20046;-72
2022/08/24 22:30:55;;;;;;;16.77;15.45;;;;;;;19.49;100.00;100374.88;10379295;28;20049;-72
2022/08/24 22:35:56;;;;;;;16.55;15.55;;;;;;;19.12;100.00;100371.81;10379357;28;20041;-73
2022/08/24 22:40:58;;;;;;;16.55;15.18;;;;;;;19.01;100.00;100371.66;10378993;28;20052;-73
2022/08/24 22:46:00;;;;;;;16.35;15.25;;;;;;;19.00;100.00;100367.28;10381089;28;20117;-72
2022/08/24 22:51:02;;;;;;;15.63;14.43;;;;;;;19.12;100.00;100362.03;10380721;28;20508;-72
2022/08/24 22:56:23;;;;;;;15.32;14.25;;;;;;;19.10;100.00;100360.41;10380262;28;20538;-72
2022/08/24 23:01:33;;;;;;;15.80;14.70;;;;;;;19.07;100.00;100360.59;10380172;28;20076;-73
2022/08/24 23:06:36;;;;;;;15.02;14.02;;;;;;;19.01;100.00;100364.50;10378589;28;20038;-72
2022/08/24 23:11:39;;;;;;;14.55;13.55;;;;;;;19.08;100.00;100363.19;10377937;28;20049;-72
2022/08/24 23:16:48;;;;;;;16.20;14.65;;;;;;;18.88;100.00;100361.72;10377223;28;20038;-72
2022/08/24 23:21:51;;;;;;;15.20;14.18;;;;;;;18.77;100.00;100358.88;10378389;28;20041;-72
2022/08/24 23:26:53;;;;;;;16.10;14.93;;;;;;;18.84;100.00;100354.03;10359650;28;20042;-72
2022/08/24 23:31:55;;;;;;;16.83;15.73;;;;;;;18.70;100.00;100360.19;10360235;28;20396;-72